sensor_id;sensor_type;location;lat;lon;timestamp;P1;durP1;ratioP1;P2;durP2;ratioP2
37379;SDS011;23252;-33.992;18.480;2023-08-08T00:00:26;24.35;;;16.05;;
37379;SDS011;23252;-33.992;18.480;2023-08-08T00:02:53;25.85;;;16.40;;
37379;SDS011;23252;-33.992;18.480;2023-08-08T00:05:20;28.85;;;18.35;;
37379;SDS011;23252;-33.992;18.480;2023-08-08T00:07:46;27.60;;;18.88;;
37379;SDS011;23252;-33.992;18.480;2023-08-08T00:10:13;26.15;;;19.40;;
37379;SDS011;23252;-33.992;18.480;2023-08-08T00:12:39;29.77;;;18.77;;
37379;SDS011;23252;-33.992;18.480;2023-08-08T00:15:06;27.30;;;18.98;;
37379;SDS011;23252;-33.992;18.480;2023-08-08T00:20:01;29.20;;;18.58;;
37379;SDS011;23252;-33.992;18.480;2023-08-08T00:22:28;26.33;;;18.08;;
37379;SDS011;23252;-33.992;18.480;2023-08-08T00:24:55;35.10;;;19.33;;
37379;SDS011;23252;-33.992;18.480;2023-08-08T00:27:22;28.75;;;19.30;;
37379;SDS011;23252;-33.992;18.480;2023-08-08T00:29:48;31.70;;;20.63;;
37379;SDS011;23252;-33.992;18.480;2023-08-08T00:32:16;27.23;;;20.13;;
37379;SDS011;23252;-33.992;18.480;2023-08-08T00:34:42;26.70;;;19.33;;
37379;SDS011;23252;-33.992;18.480;2023-08-08T00:37:09;29.90;;;20.40;;
37379;SDS011;23252;-33.992;18.480;2023-08-08T00:39:36;24.88;;;18.45;;
37379;SDS011;23252;-33.992;18.480;2023-08-08T00:42:03;28.10;;;20.65;;
37379;SDS011;23252;-33.992;18.480;2023-08-08T00:44:29;27.95;;;20.17;;
37379;SDS011;23252;-33.992;18.480;2023-08-08T00:46:56;27.23;;;20.80;;
37379;SDS011;23252;-33.992;18.480;2023-08-08T00:49:23;29.08;;;20.33;;
37379;SDS011;23252;-33.992;18.480;2023-08-08T00:51:49;30.70;;;21.65;;
37379;SDS011;23252;-33.992;18.480;2023-08-08T00:54:16;31.33;;;21.48;;
37379;SDS011;23252;-33.992;18.480;2023-08-08T00:56:43;30.30;;;20.50;;
37379;SDS011;23252;-33.992;18.480;2023-08-08T00:59:10;31.83;;;19.35;;
37379;SDS011;23252;-33.992;18.480;2023-08-08T01:01:39;29.27;;;20.08;;
37379;SDS011;23252;-33.992;18.480;2023-08-08T01:04:06;29.70;;;20.63;;
37379;SDS011;23252;-33.992;18.480;2023-08-08T01:09:09;27.20;;;19.93;;
37379;SDS011;23252;-33.992;18.480;2023-08-08T01:11:43;27.40;;;19.52;;
37379;SDS011;23252;-33.992;18.480;2023-08-08T01:14:13;30.25;;;20.45;;
37379;SDS011;23252;-33.992;18.480;2023-08-08T01:16:42;31.50;;;21.45;;
37379;SDS011;23252;-33.992;18.480;2023-08-08T01:21:37;26.10;;;19.98;;
37379;SDS011;23252;-33.992;18.480;2023-08-08T01:24:19;32.55;;;20.15;;
37379;SDS011;23252;-33.992;18.480;2023-08-08T01:26:47;32.10;;;19.83;;
37379;SDS011;23252;-33.992;18.480;2023-08-08T01:31:41;33.83;;;21.00;;
37379;SDS011;23252;-33.992;18.480;2023-08-08T01:34:07;32.05;;;21.33;;
37379;SDS011;23252;-33.992;18.480;2023-08-08T01:39:20;31.50;;;21.85;;
37379;SDS011;23252;-33.992;18.480;2023-08-08T01:41:52;34.20;;;22.25;;
37379;SDS011;23252;-33.992;18.480;2023-08-08T01:44:21;35.40;;;22.65;;
37379;SDS011;23252;-33.992;18.480;2023-08-08T01:46:51;37.25;;;22.73;;
37379;SDS011;23252;-33.992;18.480;2023-08-08T01:49:19;35.67;;;23.77;;
37379;SDS011;23252;-33.992;18.480;2023-08-08T01:51:46;35.70;;;23.40;;
37379;SDS011;23252;-33.992;18.480;2023-08-08T01:54:13;36.10;;;23.13;;
37379;SDS011;23252;-33.992;18.480;2023-08-08T01:56:40;30.98;;;22.20;;
37379;SDS011;23252;-33.992;18.480;2023-08-08T01:59:07;34.87;;;24.03;;
37379;SDS011;23252;-33.992;18.480;2023-08-08T02:01:33;35.72;;;23.80;;
37379;SDS011;23252;-33.992;18.480;2023-08-08T02:04:00;35.08;;;24.02;;
37379;SDS011;23252;-33.992;18.480;2023-08-08T02:06:27;36.38;;;24.02;;
37379;SDS011;23252;-33.992;18.480;2023-08-08T02:08:53;39.97;;;24.48;;
37379;SDS011;23252;-33.992;18.480;2023-08-08T02:11:20;45.13;;;25.70;;
37379;SDS011;23252;-33.992;18.480;2023-08-08T02:13:47;42.22;;;25.50;;
37379;SDS011;23252;-33.992;18.480;2023-08-08T02:16:14;41.38;;;24.35;;
37379;SDS011;23252;-33.992;18.480;2023-08-08T02:18:40;43.38;;;24.67;;
37379;SDS011;23252;-33.992;18.480;2023-08-08T02:21:07;56.08;;;27.55;;
37379;SDS011;23252;-33.992;18.480;2023-08-08T02:23:34;51.28;;;27.40;;
37379;SDS011;23252;-33.992;18.480;2023-08-08T02:26:01;51.07;;;28.33;;
37379;SDS011;23252;-33.992;18.480;2023-08-08T02:28:27;54.72;;;29.42;;
37379;SDS011;23252;-33.992;18.480;2023-08-08T02:30:54;63.60;;;30.87;;
37379;SDS011;23252;-33.992;18.480;2023-08-08T02:33:21;64.38;;;31.50;;
37379;SDS011;23252;-33.992;18.480;2023-08-08T02:35:47;63.10;;;32.75;;
37379;SDS011;23252;-33.992;18.480;2023-08-08T02:38:14;64.03;;;30.20;;
37379;SDS011;23252;-33.992;18.480;2023-08-08T02:40:41;59.07;;;32.37;;
37379;SDS011;23252;-33.992;18.480;2023-08-08T02:43:07;63.97;;;32.07;;
37379;SDS011;23252;-33.992;18.480;2023-08-08T02:45:37;62.40;;;32.95;;
37379;SDS011;23252;-33.992;18.480;2023-08-08T02:48:04;68.60;;;32.90;;
37379;SDS011;23252;-33.992;18.480;2023-08-08T02:50:31;64.80;;;33.65;;
37379;SDS011;23252;-33.992;18.480;2023-08-08T02:52:58;62.92;;;33.05;;
37379;SDS011;23252;-33.992;18.480;2023-08-08T02:55:25;79.10;;;33.97;;
37379;SDS011;23252;-33.992;18.480;2023-08-08T02:57:51;72.03;;;34.92;;
37379;SDS011;23252;-33.992;18.480;2023-08-08T03:00:18;72.32;;;35.00;;
37379;SDS011;23252;-33.992;18.480;2023-08-08T03:02:45;70.55;;;33.33;;
37379;SDS011;23252;-33.992;18.480;2023-08-08T03:05:11;71.32;;;34.25;;
37379;SDS011;23252;-33.992;18.480;2023-08-08T03:07:39;68.53;;;32.63;;
37379;SDS011;23252;-33.992;18.480;2023-08-08T03:10:05;76.65;;;35.30;;
37379;SDS011;23252;-33.992;18.480;2023-08-08T03:12:32;70.10;;;34.80;;
37379;SDS011;23252;-33.992;18.480;2023-08-08T03:14:59;75.88;;;33.53;;
37379;SDS011;23252;-33.992;18.480;2023-08-08T03:17:25;76.95;;;33.78;;
37379;SDS011;23252;-33.992;18.480;2023-08-08T03:19:52;65.18;;;33.20;;
37379;SDS011;23252;-33.992;18.480;2023-08-08T03:22:19;64.75;;;31.85;;
37379;SDS011;23252;-33.992;18.480;2023-08-08T03:24:45;61.55;;;31.25;;
37379;SDS011;23252;-33.992;18.480;2023-08-08T03:27:12;57.78;;;31.15;;
37379;SDS011;23252;-33.992;18.480;2023-08-08T03:29:39;59.03;;;30.52;;
37379;SDS011;23252;-33.992;18.480;2023-08-08T03:32:06;57.67;;;30.65;;
37379;SDS011;23252;-33.992;18.480;2023-08-08T03:34:32;50.10;;;28.65;;
37379;SDS011;23252;-33.992;18.480;2023-08-08T03:36:59;53.90;;;29.80;;
37379;SDS011;23252;-33.992;18.480;2023-08-08T03:39:26;53.15;;;28.58;;
37379;SDS011;23252;-33.992;18.480;2023-08-08T03:41:53;49.50;;;27.40;;
37379;SDS011;23252;-33.992;18.480;2023-08-08T03:44:20;53.85;;;29.25;;
37379;SDS011;23252;-33.992;18.480;2023-08-08T03:46:46;50.38;;;28.55;;
37379;SDS011;23252;-33.992;18.480;2023-08-08T03:49:13;51.63;;;28.83;;
37379;SDS011;23252;-33.992;18.480;2023-08-08T03:51:40;53.67;;;28.55;;
37379;SDS011;23252;-33.992;18.480;2023-08-08T03:54:06;52.30;;;27.65;;
37379;SDS011;23252;-33.992;18.480;2023-08-08T03:56:33;47.75;;;27.35;;
37379;SDS011;23252;-33.992;18.480;2023-08-08T03:59:00;53.63;;;28.40;;
37379;SDS011;23252;-33.992;18.480;2023-08-08T04:01:27;56.53;;;29.38;;
37379;SDS011;23252;-33.992;18.480;2023-08-08T04:03:53;51.60;;;27.20;;
37379;SDS011;23252;-33.992;18.480;2023-08-08T04:06:20;45.50;;;26.00;;
37379;SDS011;23252;-33.992;18.480;2023-08-08T04:08:46;41.93;;;24.33;;
37379;SDS011;23252;-33.992;18.480;2023-08-08T04:11:13;42.87;;;24.10;;
37379;SDS011;23252;-33.992;18.480;2023-08-08T04:13:40;48.73;;;27.77;;
37379;SDS011;23252;-33.992;18.480;2023-08-08T04:16:06;47.67;;;27.13;;
37379;SDS011;23252;-33.992;18.480;2023-08-08T04:18:33;48.22;;;25.58;;
37379;SDS011;23252;-33.992;18.480;2023-08-08T04:21:00;46.95;;;26.35;;
37379;SDS011;23252;-33.992;18.480;2023-08-08T04:23:26;51.65;;;25.60;;
37379;SDS011;23252;-33.992;18.480;2023-08-08T04:25:53;46.80;;;25.23;;
37379;SDS011;23252;-33.992;18.480;2023-08-08T04:28:20;48.97;;;26.30;;
37379;SDS011;23252;-33.992;18.480;2023-08-08T04:30:46;46.90;;;24.63;;
37379;SDS011;23252;-33.992;18.480;2023-08-08T04:33:13;40.60;;;22.08;;
37379;SDS011;23252;-33.992;18.480;2023-08-08T04:35:40;43.22;;;23.73;;
37379;SDS011;23252;-33.992;18.480;2023-08-08T04:38:07;39.75;;;22.77;;
37379;SDS011;23252;-33.992;18.480;2023-08-08T04:40:34;40.53;;;22.77;;
37379;SDS011;23252;-33.992;18.480;2023-08-08T04:43:00;36.80;;;22.63;;
37379;SDS011;23252;-33.992;18.480;2023-08-08T04:45:27;42.88;;;23.58;;
37379;SDS011;23252;-33.992;18.480;2023-08-08T04:47:54;40.45;;;23.83;;
37379;SDS011;23252;-33.992;18.480;2023-08-08T04:50:21;41.03;;;22.65;;
37379;SDS011;23252;-33.992;18.480;2023-08-08T04:52:47;42.03;;;23.30;;
37379;SDS011;23252;-33.992;18.480;2023-08-08T04:55:14;38.78;;;22.55;;
37379;SDS011;23252;-33.992;18.480;2023-08-08T04:57:41;38.33;;;21.92;;
37379;SDS011;23252;-33.992;18.480;2023-08-08T05:00:08;41.25;;;22.60;;
37379;SDS011;23252;-33.992;18.480;2023-08-08T05:02:35;38.42;;;22.17;;
37379;SDS011;23252;-33.992;18.480;2023-08-08T05:05:02;38.45;;;21.90;;
37379;SDS011;23252;-33.992;18.480;2023-08-08T05:07:29;37.80;;;21.92;;
37379;SDS011;23252;-33.992;18.480;2023-08-08T05:09:55;39.88;;;21.40;;
37379;SDS011;23252;-33.992;18.480;2023-08-08T05:12:22;38.92;;;21.50;;
37379;SDS011;23252;-33.992;18.480;2023-08-08T05:14:49;42.33;;;22.42;;
37379;SDS011;23252;-33.992;18.480;2023-08-08T05:17:15;40.53;;;22.77;;
37379;SDS011;23252;-33.992;18.480;2023-08-08T05:19:42;37.95;;;21.70;;
37379;SDS011;23252;-33.992;18.480;2023-08-08T05:22:08;37.43;;;21.77;;
37379;SDS011;23252;-33.992;18.480;2023-08-08T05:24:35;38.50;;;22.83;;
37379;SDS011;23252;-33.992;18.480;2023-08-08T05:27:02;39.05;;;22.20;;
37379;SDS011;23252;-33.992;18.480;2023-08-08T05:29:29;35.10;;;20.58;;
37379;SDS011;23252;-33.992;18.480;2023-08-08T05:31:56;33.45;;;20.75;;
37379;SDS011;23252;-33.992;18.480;2023-08-08T05:34:23;38.83;;;22.85;;
37379;SDS011;23252;-33.992;18.480;2023-08-08T05:36:50;33.05;;;18.73;;
37379;SDS011;23252;-33.992;18.480;2023-08-08T05:39:17;34.35;;;19.92;;
37379;SDS011;23252;-33.992;18.480;2023-08-08T05:41:43;36.67;;;20.90;;
37379;SDS011;23252;-33.992;18.480;2023-08-08T05:44:10;42.97;;;22.33;;
37379;SDS011;23252;-33.992;18.480;2023-08-08T05:46:37;42.67;;;21.30;;
37379;SDS011;23252;-33.992;18.480;2023-08-08T05:49:03;44.93;;;21.00;;
37379;SDS011;23252;-33.992;18.480;2023-08-08T05:51:30;44.67;;;19.13;;
37379;SDS011;23252;-33.992;18.480;2023-08-08T05:53:56;37.27;;;20.07;;
37379;SDS011;23252;-33.992;18.480;2023-08-08T05:56:23;39.45;;;20.60;;
37379;SDS011;23252;-33.992;18.480;2023-08-08T05:58:50;38.80;;;20.60;;
37379;SDS011;23252;-33.992;18.480;2023-08-08T06:01:16;38.28;;;20.33;;
37379;SDS011;23252;-33.992;18.480;2023-08-08T06:03:43;38.15;;;18.13;;
37379;SDS011;23252;-33.992;18.480;2023-08-08T06:06:09;40.20;;;18.80;;
37379;SDS011;23252;-33.992;18.480;2023-08-08T06:08:36;39.50;;;20.40;;
37379;SDS011;23252;-33.992;18.480;2023-08-08T06:11:03;56.53;;;39.72;;
37379;SDS011;23252;-33.992;18.480;2023-08-08T06:13:29;94.88;;;74.72;;
37379;SDS011;23252;-33.992;18.480;2023-08-08T06:15:56;115.00;;;89.60;;
37379;SDS011;23252;-33.992;18.480;2023-08-08T06:18:23;119.28;;;97.30;;
37379;SDS011;23252;-33.992;18.480;2023-08-08T06:20:50;99.13;;;74.35;;
37379;SDS011;23252;-33.992;18.480;2023-08-08T06:23:17;75.45;;;54.83;;
37379;SDS011;23252;-33.992;18.480;2023-08-08T06:25:43;49.50;;;33.30;;
37379;SDS011;23252;-33.992;18.480;2023-08-08T06:28:10;45.88;;;25.35;;
37379;SDS011;23252;-33.992;18.480;2023-08-08T06:30:39;45.05;;;23.65;;
37379;SDS011;23252;-33.992;18.480;2023-08-08T06:33:06;35.90;;;22.80;;
37379;SDS011;23252;-33.992;18.480;2023-08-08T06:35:34;38.45;;;22.40;;
37379;SDS011;23252;-33.992;18.480;2023-08-08T06:38:00;39.42;;;22.42;;
37379;SDS011;23252;-33.992;18.480;2023-08-08T06:40:28;36.30;;;17.58;;
37379;SDS011;23252;-33.992;18.480;2023-08-08T06:42:55;34.47;;;14.25;;
37379;SDS011;23252;-33.992;18.480;2023-08-08T06:45:21;29.08;;;11.23;;
37379;SDS011;23252;-33.992;18.480;2023-08-08T06:47:48;33.67;;;10.50;;
37379;SDS011;23252;-33.992;18.480;2023-08-08T06:50:15;24.85;;;10.20;;
37379;SDS011;23252;-33.992;18.480;2023-08-08T06:52:42;32.85;;;9.63;;
37379;SDS011;23252;-33.992;18.480;2023-08-08T06:55:09;30.30;;;10.48;;
37379;SDS011;23252;-33.992;18.480;2023-08-08T06:57:36;26.23;;;8.75;;
37379;SDS011;23252;-33.992;18.480;2023-08-08T07:00:03;29.83;;;8.35;;
37379;SDS011;23252;-33.992;18.480;2023-08-08T07:04:57;30.83;;;8.93;;
37379;SDS011;23252;-33.992;18.480;2023-08-08T07:07:24;26.98;;;8.63;;
37379;SDS011;23252;-33.992;18.480;2023-08-08T07:09:50;32.85;;;8.15;;
37379;SDS011;23252;-33.992;18.480;2023-08-08T07:12:17;27.40;;;8.88;;
37379;SDS011;23252;-33.992;18.480;2023-08-08T07:14:43;26.60;;;9.02;;
37379;SDS011;23252;-33.992;18.480;2023-08-08T07:17:10;25.47;;;8.97;;
37379;SDS011;23252;-33.992;18.480;2023-08-08T07:19:37;23.33;;;8.30;;
37379;SDS011;23252;-33.992;18.480;2023-08-08T07:22:03;29.13;;;10.23;;
37379;SDS011;23252;-33.992;18.480;2023-08-08T07:24:30;31.00;;;12.75;;
37379;SDS011;23252;-33.992;18.480;2023-08-08T07:26:57;34.13;;;14.02;;
37379;SDS011;23252;-33.992;18.480;2023-08-08T07:29:25;30.50;;;15.27;;
37379;SDS011;23252;-33.992;18.480;2023-08-08T07:31:52;38.55;;;14.07;;
37379;SDS011;23252;-33.992;18.480;2023-08-08T07:34:19;34.00;;;10.57;;
37379;SDS011;23252;-33.992;18.480;2023-08-08T07:36:47;28.90;;;10.32;;
37379;SDS011;23252;-33.992;18.480;2023-08-08T07:41:40;31.88;;;10.70;;
37379;SDS011;23252;-33.992;18.480;2023-08-08T07:44:06;34.07;;;9.70;;
37379;SDS011;23252;-33.992;18.480;2023-08-08T07:46:33;35.38;;;9.60;;
37379;SDS011;23252;-33.992;18.480;2023-08-08T07:49:00;27.60;;;8.18;;
37379;SDS011;23252;-33.992;18.480;2023-08-08T07:51:29;28.63;;;7.75;;
37379;SDS011;23252;-33.992;18.480;2023-08-08T07:53:56;35.47;;;8.90;;
37379;SDS011;23252;-33.992;18.480;2023-08-08T07:56:22;38.67;;;11.73;;
37379;SDS011;23252;-33.992;18.480;2023-08-08T07:58:49;35.85;;;10.38;;
37379;SDS011;23252;-33.992;18.480;2023-08-08T08:01:16;32.75;;;10.57;;
37379;SDS011;23252;-33.992;18.480;2023-08-08T10:14:54;23.52;;;4.05;;
37379;SDS011;23252;-33.992;18.480;2023-08-08T10:17:22;24.17;;;4.28;;
37379;SDS011;23252;-33.992;18.480;2023-08-08T10:19:50;25.65;;;4.05;;
37379;SDS011;23252;-33.992;18.480;2023-08-08T10:22:22;23.65;;;3.15;;
37379;SDS011;23252;-33.992;18.480;2023-08-08T10:24:53;21.55;;;4.15;;
37379;SDS011;23252;-33.992;18.480;2023-08-08T10:27:28;21.25;;;3.28;;
37379;SDS011;23252;-33.992;18.480;2023-08-08T10:30:05;19.92;;;2.97;;
37379;SDS011;23252;-33.992;18.480;2023-08-08T10:32:41;15.10;;;3.13;;
37379;SDS011;23252;-33.992;18.480;2023-08-08T10:35:15;26.08;;;3.20;;
37379;SDS011;23252;-33.992;18.480;2023-08-08T10:37:51;23.55;;;3.40;;
37379;SDS011;23252;-33.992;18.480;2023-08-08T10:40:19;17.92;;;3.38;;
37379;SDS011;23252;-33.992;18.480;2023-08-08T10:42:46;15.80;;;3.00;;
37379;SDS011;23252;-33.992;18.480;2023-08-08T10:45:14;17.30;;;3.13;;
37379;SDS011;23252;-33.992;18.480;2023-08-08T10:47:42;14.23;;;3.00;;
37379;SDS011;23252;-33.992;18.480;2023-08-08T10:50:13;15.88;;;3.10;;
37379;SDS011;23252;-33.992;18.480;2023-08-08T10:52:55;19.58;;;2.95;;
37379;SDS011;23252;-33.992;18.480;2023-08-08T10:58:06;18.52;;;3.45;;
37379;SDS011;23252;-33.992;18.480;2023-08-08T11:00:34;26.10;;;3.35;;
37379;SDS011;23252;-33.992;18.480;2023-08-08T11:03:05;14.40;;;2.88;;
37379;SDS011;23252;-33.992;18.480;2023-08-08T11:07:59;19.40;;;3.30;;
37379;SDS011;23252;-33.992;18.480;2023-08-08T11:10:28;24.55;;;3.58;;
37379;SDS011;23252;-33.992;18.480;2023-08-08T11:13:01;19.50;;;3.72;;
37379;SDS011;23252;-33.992;18.480;2023-08-08T11:15:29;22.00;;;3.45;;
37379;SDS011;23252;-33.992;18.480;2023-08-08T11:17:58;22.40;;;4.43;;
37379;SDS011;23252;-33.992;18.480;2023-08-08T11:20:30;21.35;;;3.85;;
37379;SDS011;23252;-33.992;18.480;2023-08-08T11:22:58;19.40;;;3.67;;
37379;SDS011;23252;-33.992;18.480;2023-08-08T11:27:52;19.25;;;3.25;;
37379;SDS011;23252;-33.992;18.480;2023-08-08T11:30:20;22.55;;;3.53;;
37379;SDS011;23252;-33.992;18.480;2023-08-08T11:32:48;19.17;;;3.40;;
37379;SDS011;23252;-33.992;18.480;2023-08-08T11:35:16;22.60;;;3.40;;
37379;SDS011;23252;-33.992;18.480;2023-08-08T11:37:55;19.98;;;3.33;;
37379;SDS011;23252;-33.992;18.480;2023-08-08T11:40:26;22.75;;;3.30;;
37379;SDS011;23252;-33.992;18.480;2023-08-08T11:42:54;20.35;;;3.33;;
37379;SDS011;23252;-33.992;18.480;2023-08-08T11:45:22;21.63;;;3.25;;
37379;SDS011;23252;-33.992;18.480;2023-08-08T11:47:53;18.73;;;3.03;;
37379;SDS011;23252;-33.992;18.480;2023-08-08T11:50:21;17.85;;;2.92;;
37379;SDS011;23252;-33.992;18.480;2023-08-08T11:52:50;19.85;;;3.00;;
37379;SDS011;23252;-33.992;18.480;2023-08-08T11:55:19;16.63;;;3.50;;
37379;SDS011;23252;-33.992;18.480;2023-08-08T11:57:49;18.13;;;2.80;;
37379;SDS011;23252;-33.992;18.480;2023-08-08T12:00:16;18.05;;;2.92;;
37379;SDS011;23252;-33.992;18.480;2023-08-08T12:02:43;17.23;;;2.80;;
37379;SDS011;23252;-33.992;18.480;2023-08-08T12:05:10;22.38;;;3.47;;
37379;SDS011;23252;-33.992;18.480;2023-08-08T12:07:42;18.08;;;3.13;;
37379;SDS011;23252;-33.992;18.480;2023-08-08T12:10:15;24.75;;;3.17;;
37379;SDS011;23252;-33.992;18.480;2023-08-08T12:12:43;24.83;;;3.83;;
37379;SDS011;23252;-33.992;18.480;2023-08-08T12:15:11;17.80;;;3.08;;
37379;SDS011;23252;-33.992;18.480;2023-08-08T12:17:38;31.77;;;4.40;;
37379;SDS011;23252;-33.992;18.480;2023-08-08T12:20:06;18.60;;;2.90;;
37379;SDS011;23252;-33.992;18.480;2023-08-08T12:22:35;19.08;;;2.97;;
37379;SDS011;23252;-33.992;18.480;2023-08-08T12:25:02;25.23;;;3.97;;
37379;SDS011;23252;-33.992;18.480;2023-08-08T12:29:56;19.77;;;3.85;;
37379;SDS011;23252;-33.992;18.480;2023-08-08T12:32:24;24.90;;;5.38;;
37379;SDS011;23252;-33.992;18.480;2023-08-08T12:34:54;22.00;;;3.63;;
37379;SDS011;23252;-33.992;18.480;2023-08-08T12:37:22;22.95;;;4.18;;
37379;SDS011;23252;-33.992;18.480;2023-08-08T12:39:49;23.67;;;3.78;;
37379;SDS011;23252;-33.992;18.480;2023-08-08T12:42:16;20.67;;;3.42;;
37379;SDS011;23252;-33.992;18.480;2023-08-08T12:44:43;26.15;;;3.88;;
37379;SDS011;23252;-33.992;18.480;2023-08-08T12:47:12;20.15;;;3.40;;
37379;SDS011;23252;-33.992;18.480;2023-08-08T12:49:39;20.48;;;3.75;;
37379;SDS011;23252;-33.992;18.480;2023-08-08T12:52:05;23.02;;;3.67;;
37379;SDS011;23252;-33.992;18.480;2023-08-08T12:54:32;16.67;;;3.58;;
37379;SDS011;23252;-33.992;18.480;2023-08-08T12:56:59;21.73;;;4.35;;
37379;SDS011;23252;-33.992;18.480;2023-08-08T12:59:25;25.05;;;7.95;;
37379;SDS011;23252;-33.992;18.480;2023-08-08T13:01:52;24.23;;;4.28;;
37379;SDS011;23252;-33.992;18.480;2023-08-08T13:04:19;18.65;;;4.30;;
37379;SDS011;23252;-33.992;18.480;2023-08-08T13:06:46;20.27;;;5.07;;
37379;SDS011;23252;-33.992;18.480;2023-08-08T13:09:14;17.80;;;4.53;;
37379;SDS011;23252;-33.992;18.480;2023-08-08T13:11:41;16.65;;;4.13;;
37379;SDS011;23252;-33.992;18.480;2023-08-08T13:14:08;16.90;;;4.80;;
37379;SDS011;23252;-33.992;18.480;2023-08-08T13:16:34;20.48;;;4.35;;
37379;SDS011;23252;-33.992;18.480;2023-08-08T13:19:01;22.63;;;5.00;;
37379;SDS011;23252;-33.992;18.480;2023-08-08T13:21:29;26.10;;;7.65;;
37379;SDS011;23252;-33.992;18.480;2023-08-08T13:23:56;27.45;;;6.18;;
37379;SDS011;23252;-33.992;18.480;2023-08-08T13:26:23;22.85;;;6.20;;
37379;SDS011;23252;-33.992;18.480;2023-08-08T13:28:50;25.58;;;5.03;;
37379;SDS011;23252;-33.992;18.480;2023-08-08T13:31:17;22.00;;;6.07;;
37379;SDS011;23252;-33.992;18.480;2023-08-08T13:33:43;24.90;;;8.07;;
37379;SDS011;23252;-33.992;18.480;2023-08-08T13:36:10;19.13;;;4.95;;
37379;SDS011;23252;-33.992;18.480;2023-08-08T13:38:37;20.83;;;5.35;;
37379;SDS011;23252;-33.992;18.480;2023-08-08T13:41:03;21.25;;;3.60;;
37379;SDS011;23252;-33.992;18.480;2023-08-08T13:43:30;25.63;;;3.95;;
37379;SDS011;23252;-33.992;18.480;2023-08-08T13:45:57;22.70;;;3.35;;
37379;SDS011;23252;-33.992;18.480;2023-08-08T13:48:23;24.63;;;4.63;;
37379;SDS011;23252;-33.992;18.480;2023-08-08T13:50:50;17.95;;;3.25;;
37379;SDS011;23252;-33.992;18.480;2023-08-08T13:53:18;18.77;;;3.08;;
37379;SDS011;23252;-33.992;18.480;2023-08-08T13:55:45;15.38;;;2.97;;
37379;SDS011;23252;-33.992;18.480;2023-08-08T13:58:12;19.55;;;3.60;;
37379;SDS011;23252;-33.992;18.480;2023-08-08T14:00:38;19.25;;;3.92;;
37379;SDS011;23252;-33.992;18.480;2023-08-08T14:03:05;19.48;;;3.05;;
37379;SDS011;23252;-33.992;18.480;2023-08-08T14:05:32;18.60;;;3.03;;
37379;SDS011;23252;-33.992;18.480;2023-08-08T14:07:58;23.27;;;3.15;;
37379;SDS011;23252;-33.992;18.480;2023-08-08T14:10:25;22.88;;;3.08;;
37379;SDS011;23252;-33.992;18.480;2023-08-08T14:12:52;14.18;;;2.83;;
37379;SDS011;23252;-33.992;18.480;2023-08-08T14:15:18;17.83;;;3.50;;
37379;SDS011;23252;-33.992;18.480;2023-08-08T14:17:47;16.98;;;2.80;;
37379;SDS011;23252;-33.992;18.480;2023-08-08T14:20:13;17.90;;;3.17;;
37379;SDS011;23252;-33.992;18.480;2023-08-08T14:22:43;18.75;;;3.25;;
37379;SDS011;23252;-33.992;18.480;2023-08-08T14:25:13;14.20;;;2.45;;
37379;SDS011;23252;-33.992;18.480;2023-08-08T14:30:06;22.88;;;3.05;;
37379;SDS011;23252;-33.992;18.480;2023-08-08T14:32:33;19.42;;;2.83;;
37379;SDS011;23252;-33.992;18.480;2023-08-08T14:35:00;17.85;;;3.03;;
37379;SDS011;23252;-33.992;18.480;2023-08-08T14:37:29;19.85;;;3.33;;
37379;SDS011;23252;-33.992;18.480;2023-08-08T14:39:56;24.13;;;3.28;;
37379;SDS011;23252;-33.992;18.480;2023-08-08T14:42:23;12.73;;;2.45;;
37379;SDS011;23252;-33.992;18.480;2023-08-08T14:44:50;17.45;;;2.63;;
37379;SDS011;23252;-33.992;18.480;2023-08-08T14:47:17;17.13;;;3.03;;
37379;SDS011;23252;-33.992;18.480;2023-08-08T14:49:43;13.35;;;2.40;;
37379;SDS011;23252;-33.992;18.480;2023-08-08T14:52:10;19.08;;;2.75;;
37379;SDS011;23252;-33.992;18.480;2023-08-08T14:54:37;19.92;;;3.72;;
37379;SDS011;23252;-33.992;18.480;2023-08-08T14:57:05;21.83;;;3.33;;
37379;SDS011;23252;-33.992;18.480;2023-08-08T14:59:31;17.92;;;2.60;;
37379;SDS011;23252;-33.992;18.480;2023-08-08T15:01:58;17.35;;;3.63;;
37379;SDS011;23252;-33.992;18.480;2023-08-08T15:04:25;16.40;;;2.83;;
37379;SDS011;23252;-33.992;18.480;2023-08-08T15:06:52;18.55;;;3.35;;
37379;SDS011;23252;-33.992;18.480;2023-08-08T15:09:18;21.85;;;3.17;;
37379;SDS011;23252;-33.992;18.480;2023-08-08T15:11:45;18.23;;;2.92;;
37379;SDS011;23252;-33.992;18.480;2023-08-08T15:14:12;16.10;;;3.03;;
37379;SDS011;23252;-33.992;18.480;2023-08-08T15:16:38;20.27;;;2.93;;
37379;SDS011;23252;-33.992;18.480;2023-08-08T15:19:05;14.82;;;2.80;;
37379;SDS011;23252;-33.992;18.480;2023-08-08T15:21:31;19.08;;;3.45;;
37379;SDS011;23252;-33.992;18.480;2023-08-08T15:23:58;29.27;;;3.88;;
37379;SDS011;23252;-33.992;18.480;2023-08-08T15:26:25;20.35;;;3.55;;
37379;SDS011;23252;-33.992;18.480;2023-08-08T15:28:51;17.55;;;2.72;;
37379;SDS011;23252;-33.992;18.480;2023-08-08T15:31:18;20.63;;;3.50;;
37379;SDS011;23252;-33.992;18.480;2023-08-08T15:33:45;20.02;;;4.22;;
37379;SDS011;23252;-33.992;18.480;2023-08-08T15:36:12;21.17;;;3.05;;
37379;SDS011;23252;-33.992;18.480;2023-08-08T15:38:38;22.50;;;2.95;;
37379;SDS011;23252;-33.992;18.480;2023-08-08T15:41:06;17.55;;;2.85;;
37379;SDS011;23252;-33.992;18.480;2023-08-08T15:43:32;22.88;;;3.53;;
37379;SDS011;23252;-33.992;18.480;2023-08-08T15:45:59;19.27;;;3.05;;
37379;SDS011;23252;-33.992;18.480;2023-08-08T15:48:26;26.80;;;4.18;;
37379;SDS011;23252;-33.992;18.480;2023-08-08T15:50:53;22.13;;;2.88;;
37379;SDS011;23252;-33.992;18.480;2023-08-08T15:53:19;18.25;;;4.00;;
37379;SDS011;23252;-33.992;18.480;2023-08-08T15:55:48;21.85;;;3.92;;
37379;SDS011;23252;-33.992;18.480;2023-08-08T15:58:15;24.50;;;3.42;;
37379;SDS011;23252;-33.992;18.480;2023-08-08T16:00:42;17.77;;;3.15;;
37379;SDS011;23252;-33.992;18.480;2023-08-08T16:03:08;19.45;;;3.60;;
37379;SDS011;23252;-33.992;18.480;2023-08-08T16:05:35;22.90;;;3.40;;
37379;SDS011;23252;-33.992;18.480;2023-08-08T16:08:01;19.17;;;3.70;;
37379;SDS011;23252;-33.992;18.480;2023-08-08T16:10:28;19.35;;;3.35;;
37379;SDS011;23252;-33.992;18.480;2023-08-08T16:12:55;24.67;;;3.10;;
37379;SDS011;23252;-33.992;18.480;2023-08-08T16:15:22;12.73;;;2.70;;
37379;SDS011;23252;-33.992;18.480;2023-08-08T16:17:49;17.92;;;4.10;;
37379;SDS011;23252;-33.992;18.480;2023-08-08T16:20:16;24.98;;;3.33;;
37379;SDS011;23252;-33.992;18.480;2023-08-08T16:22:43;13.25;;;2.92;;
37379;SDS011;23252;-33.992;18.480;2023-08-08T16:25:10;11.75;;;2.35;;
37379;SDS011;23252;-33.992;18.480;2023-08-08T16:27:36;22.92;;;3.67;;
37379;SDS011;23252;-33.992;18.480;2023-08-08T16:30:03;14.73;;;3.00;;
37379;SDS011;23252;-33.992;18.480;2023-08-08T16:32:30;19.90;;;3.70;;
37379;SDS011;23252;-33.992;18.480;2023-08-08T16:34:57;21.00;;;3.67;;
37379;SDS011;23252;-33.992;18.480;2023-08-08T16:37:24;17.13;;;3.17;;
37379;SDS011;23252;-33.992;18.480;2023-08-08T16:39:50;22.77;;;3.20;;
37379;SDS011;23252;-33.992;18.480;2023-08-08T16:42:17;21.45;;;3.50;;
37379;SDS011;23252;-33.992;18.480;2023-08-08T16:44:44;27.52;;;3.47;;